Terminal Aerodrome Forecast
Issued by NWS

Home | Current Version | Previous Version | Text Only | Print | Product List | Glossary On
Versions: 1 2 3 4 5 6 7 8 9 10 11 12 13 14 15
118
FTUS43 KOAX 222320
TAFBFF
TAF
KBFF 222320Z 2300/2324 13014KT P6SM SCT080 SCT200
     FM230600 10009KT P6SM SCT060 BKN120
     FM231500 12007KT P6SM FEW080 SCT150=

USA.gov is the U.S. government's official web portal to all federal, state and local government web resources and services.